Time;durP1;ratioP1;P1;durP2;ratioP2;P2;SDS_P1;SDS_P2;PMS_P1;PMS_P2;Temp;Humidity;BMP_temperature;BMP_pressure;BME280_temperature;BME280_humidity;BME280_pressure;Samples;Min_cycle;Max_cycle;Signal;HPM_P1;HPM_P2
2022/06/19 00:01:57;;;;;;;9.10;1.20;;;14.10;99.90;;;;;;5070021;28;20041;-72
2022/06/19 00:04:23;;;;;;;10.05;1.25;;;14.10;99.90;;;;;;5070003;28;20054;-74
2022/06/19 00:06:49;;;;;;;10.05;1.20;;;14.10;99.90;;;;;;5070209;28;20448;-73
2022/06/19 00:09:15;;;;;;;10.88;1.17;;;14.00;99.90;;;;;;5069886;28;20478;-74
2022/06/19 00:11:41;;;;;;;9.40;1.38;;;14.10;99.90;;;;;;5052210;28;20136;-73
2022/06/19 00:14:08;;;;;;;6.85;1.27;;;14.00;99.90;;;;;;5069734;28;20071;-72
2022/06/19 00:16:34;;;;;;;7.50;1.13;;;14.00;99.90;;;;;;5070032;28;20120;-74
2022/06/19 00:19:00;;;;;;;7.53;1.52;;;14.00;99.90;;;;;;5051651;28;20484;-73
2022/06/19 00:21:26;;;;;;;6.63;1.10;;;14.10;99.90;;;;;;5069928;28;20048;-73
2022/06/19 00:23:51;;;;;;;10.30;2.17;;;14.10;99.90;;;;;;5069773;28;20036;-74
2022/06/19 00:26:17;;;;;;;10.23;1.65;;;14.10;99.90;;;;;;5051631;28;20602;-74
2022/06/19 00:28:46;;;;;;;6.85;1.40;;;14.10;99.90;;;;;;5069581;28;20044;-73
2022/06/19 00:31:12;;;;;;;7.53;1.35;;;14.00;99.90;;;;;;5051663;28;20160;-74
2022/06/19 00:33:37;;;;;;;8.13;1.20;;;14.10;99.90;;;;;;5069839;28;20045;-75
2022/06/19 00:36:04;;;;;;;12.07;1.30;;;14.10;99.90;;;;;;5069356;28;20609;-76
2022/06/19 00:38:29;;;;;;;10.15;1.50;;;14.10;99.90;;;;;;5069643;28;20048;-74
2022/06/19 00:40:59;;;;;;;9.48;1.67;;;14.10;99.90;;;;;;5051520;28;20518;-74
2022/06/19 00:43:26;;;;;;;11.90;1.98;;;14.10;99.90;;;;;;5051750;28;20056;-76
2022/06/19 00:45:52;;;;;;;8.50;1.40;;;14.10;99.90;;;;;;5069536;28;20041;-74
2022/06/19 00:48:27;;;;;;;10.20;1.75;;;14.20;99.90;;;;;;5069613;28;20088;-74
2022/06/19 00:50:54;;;;;;;6.50;1.40;;;14.20;99.90;;;;;;5051126;28;20049;-75
2022/06/19 00:53:55;;;;;;;9.10;1.50;;;14.40;99.90;;;;;;5069346;28;20122;-75
2022/06/19 00:56:20;;;;;;;9.98;1.45;;;14.20;99.90;;;;;;4988114;28;20489;-74
2022/06/19 00:58:49;;;;;;;9.95;1.55;;;14.20;99.90;;;;;;4971627;28;20058;-73
2022/06/19 01:01:20;;;;;;;14.15;1.52;;;14.30;99.90;;;;;;4988059;28;20058;-73
2022/06/19 01:04:32;;;;;;;12.95;2.17;;;14.30;99.90;;;;;;4972035;28;20208;-76
2022/06/19 01:06:57;;;;;;;16.92;2.05;;;14.30;99.90;;;;;;4929011;29;20428;-73
2022/06/19 01:09:23;;;;;;;13.73;1.70;;;14.30;99.90;;;;;;4929885;29;20051;-75
2022/06/19 01:11:50;;;;;;;12.00;2.08;;;14.30;99.90;;;;;;4929763;29;20055;-73
2022/06/19 01:14:20;;;;;;;12.40;1.88;;;14.30;99.90;;;;;;4930890;29;20235;-75
2022/06/19 01:16:46;;;;;;;11.90;2.00;;;14.30;99.90;;;;;;4933153;29;20223;-75
2022/06/19 01:19:21;;;;;;;12.60;2.17;;;14.30;99.90;;;;;;4932957;29;20116;-77
2022/06/19 01:22:11;;;;;;;12.65;1.83;;;14.30;99.90;;;;;;4917118;29;20488;-78
2022/06/19 01:24:57;;;;;;;18.60;2.30;;;14.30;99.90;;;;;;4932685;29;20055;-74
2022/06/19 01:30:11;;;;;;;13.10;2.53;;;14.30;99.90;;;;;;4950501;28;20839;-75
2022/06/19 01:32:37;;;;;;;13.18;2.22;;;14.30;99.90;;;;;;5010645;28;20062;-73
2022/06/19 01:35:06;;;;;;;17.08;2.33;;;14.30;99.90;;;;;;5010562;28;20065;-76
2022/06/19 01:37:32;;;;;;;14.75;2.03;;;14.30;99.90;;;;;;4993309;28;20092;-74
2022/06/19 01:40:05;;;;;;;15.52;2.42;;;14.30;99.90;;;;;;5010356;28;20126;-75
2022/06/19 01:42:31;;;;;;;13.00;2.47;;;14.40;99.90;;;;;;5017475;28;20056;-72
2022/06/19 01:44:58;;;;;;;11.50;2.00;;;14.60;99.90;;;;;;5072587;28;20365;-77
2022/06/19 01:47:24;;;;;;;15.25;2.30;;;14.40;99.90;;;;;;5054385;28;20390;-75
2022/06/19 01:49:53;;;;;;;12.20;2.00;;;14.40;99.90;;;;;;5072193;28;20186;-74
2022/06/19 01:52:20;;;;;;;13.43;2.22;;;14.60;99.90;;;;;;5071815;28;20094;-74
2022/06/19 01:55:01;;;;;;;17.75;3.05;;;14.50;99.90;;;;;;5054063;28;20072;-74
2022/06/19 01:57:28;;;;;;;16.00;2.00;;;14.50;99.90;;;;;;5072290;28;20046;-74
2022/06/19 01:59:54;;;;;;;17.90;2.20;;;14.50;99.90;;;;;;5072054;28;20111;-74
2022/06/19 02:02:20;;;;;;;16.30;2.85;;;14.40;99.90;;;;;;5071920;28;20124;-74
2022/06/19 02:04:46;;;;;;;11.15;1.83;;;14.40;99.90;;;;;;5071935;28;20049;-73
2022/06/19 02:07:17;;;;;;;18.45;2.92;;;14.40;99.90;;;;;;5071662;28;20068;-75
2022/06/19 02:09:44;;;;;;;16.55;2.60;;;14.50;99.90;;;;;;5071684;28;20048;-73
2022/06/19 02:12:11;;;;;;;17.15;2.75;;;14.40;99.90;;;;;;5071748;28;20475;-75
2022/06/19 02:14:37;;;;;;;20.38;2.58;;;14.30;99.90;;;;;;5071706;28;20036;-74
2022/06/19 02:17:12;;;;;;;15.32;2.50;;;14.40;99.90;;;;;;5071605;28;20044;-74
2022/06/19 02:19:37;;;;;;;22.33;2.42;;;14.30;99.90;;;;;;5071648;28;20055;-75
2022/06/19 02:22:11;;;;;;;18.48;2.50;;;14.40;99.90;;;;;;5071264;28;20049;-75
2022/06/19 02:24:38;;;;;;;19.85;2.72;;;14.30;99.90;;;;;;5071272;28;20143;-76
2022/06/19 02:27:05;;;;;;;15.20;2.50;;;14.30;99.90;;;;;;5071600;28;20041;-74
2022/06/19 02:29:33;;;;;;;19.02;2.03;;;14.30;99.90;;;;;;5071622;28;20051;-77
2022/06/19 02:31:59;;;;;;;16.95;2.97;;;14.30;99.90;;;;;;5053474;28;20044;-72
2022/06/19 02:34:34;;;;;;;16.92;3.25;;;14.30;99.90;;;;;;5071598;28;20105;-75
2022/06/19 02:37:04;;;;;;;;;;;14.30;99.90;;;;;;5053942;28;20053;-74
2022/06/19 02:39:41;;;;;;;17.33;2.33;;;14.20;99.90;;;;;;5071450;28;19920;-74
2022/06/19 02:42:22;;;;;;;20.95;3.08;;;14.20;99.90;;;;;;5071472;28;20048;-75
2022/06/19 02:44:51;;;;;;;12.75;2.17;;;14.30;99.90;;;;;;5071245;28;20647;-75
2022/06/19 02:47:18;;;;;;;12.43;2.25;;;14.30;99.90;;;;;;5071206;28;20045;-76
2022/06/19 02:49:43;;;;;;;17.98;2.65;;;14.20;99.90;;;;;;5071389;28;20048;-75
2022/06/19 02:52:11;;;;;;;15.65;2.22;;;14.20;99.90;;;;;;5071090;28;20082;-76
2022/06/19 02:54:37;;;;;;;14.35;2.70;;;14.20;99.90;;;;;;5071067;28;20053;-72
2022/06/19 02:57:03;;;;;;;14.40;2.10;;;14.20;99.90;;;;;;5071224;28;20032;-73
2022/06/19 02:59:29;;;;;;;14.43;3.10;;;14.20;99.90;;;;;;5070952;28;20426;-75
2022/06/19 03:01:55;;;;;;;17.17;2.75;;;14.50;99.90;;;;;;5071127;28;20047;-76
2022/06/19 03:04:25;;;;;;;16.45;3.33;;;14.20;99.90;;;;;;5052958;28;20056;-76
2022/06/19 03:06:52;;;;;;;14.77;2.63;;;14.20;99.90;;;;;;5071037;28;20544;-75
2022/06/19 03:09:18;;;;;;;15.25;2.13;;;14.20;99.90;;;;;;5070650;28;20044;-73
2022/06/19 03:11:44;;;;;;;19.27;2.53;;;14.30;99.90;;;;;;5053271;28;20056;-75
2022/06/19 03:14:10;;;;;;;18.55;2.97;;;14.20;99.90;;;;;;5070922;28;20044;-74
2022/06/19 03:16:35;;;;;;;12.02;1.80;;;14.20;99.90;;;;;;5052871;28;20546;-75
2022/06/19 03:19:02;;;;;;;18.27;2.60;;;14.40;99.90;;;;;;5052717;28;20053;-74
2022/06/19 03:21:27;;;;;;;19.63;2.35;;;14.20;99.90;;;;;;5070704;28;20596;-75
2022/06/19 03:23:53;;;;;;;20.83;2.95;;;14.20;99.90;;;;;;5070498;28;20047;-78
2022/06/19 03:26:19;;;;;;;17.95;2.83;;;14.20;99.90;;;;;;5052828;28;20755;-73
2022/06/19 03:28:45;;;;;;;16.38;2.08;;;14.20;99.90;;;;;;5070784;28;20736;-74
2022/06/19 03:31:16;;;;;;;16.27;2.60;;;14.20;99.90;;;;;;5070640;28;20105;-75
2022/06/19 03:33:42;;;;;;;14.88;1.95;;;14.20;99.90;;;;;;5052767;28;20419;-73
2022/06/19 03:36:08;;;;;;;22.85;2.45;;;14.20;99.90;;;;;;5070585;28;20056;-72
2022/06/19 03:38:33;;;;;;;15.40;2.20;;;14.10;99.90;;;;;;5052589;28;20052;-73
2022/06/19 03:40:59;;;;;;;28.25;3.83;;;14.10;99.90;;;;;;5070269;28;20180;-79
2022/06/19 03:43:25;;;;;;;20.05;2.95;;;14.10;99.90;;;;;;5052757;28;20055;-76
2022/06/19 03:45:51;;;;;;;15.65;3.22;;;13.90;99.90;;;;;;5070741;28;20049;-82
2022/06/19 03:48:16;;;;;;;25.42;2.90;;;13.90;99.90;;;;;;5052646;28;20051;-78
2022/06/19 03:50:42;;;;;;;15.85;2.67;;;13.80;99.90;;;;;;5070752;28;20133;-77
2022/06/19 03:53:08;;;;;;;18.90;2.50;;;13.70;99.90;;;;;;5052816;28;20051;-78
2022/06/19 03:55:34;;;;;;;13.55;2.17;;;13.60;99.90;;;;;;5052303;28;20048;-81
2022/06/19 03:58:00;;;;;;;17.38;2.55;;;13.60;99.90;;;;;;5070538;28;20390;-78
2022/06/19 04:00:26;;;;;;;26.15;3.33;;;13.50;99.90;;;;;;5070529;28;20060;-78
2022/06/19 04:02:52;;;;;;;17.30;2.83;;;13.50;99.90;;;;;;5052557;28;20412;-77
2022/06/19 04:05:18;;;;;;;26.27;3.65;;;13.50;99.90;;;;;;5070317;28;20139;-78
2022/06/19 04:07:49;;;;;;;14.55;2.00;;;13.50;99.90;;;;;;5070684;28;20510;-81
2022/06/19 04:10:16;;;;;;;18.95;3.38;;;13.40;99.90;;;;;;5070554;28;20055;-78
2022/06/19 04:12:42;;;;;;;15.77;2.35;;;13.60;99.90;;;;;;5070569;28;20040;-78
2022/06/19 04:15:10;;;;;;;14.70;3.22;;;13.40;99.90;;;;;;5052521;28;20044;-77
2022/06/19 04:17:36;;;;;;;24.00;2.83;;;13.30;99.90;;;;;;5070303;28;20047;-78
2022/06/19 04:20:02;;;;;;;18.95;2.72;;;13.30;99.90;;;;;;5070045;28;20049;-78
2022/06/19 04:22:28;;;;;;;13.10;2.55;;;13.20;99.90;;;;;;5070190;28;20053;-76
2022/06/19 04:24:54;;;;;;;17.38;2.70;;;13.10;99.90;;;;;;5070447;28;20036;-77
2022/06/19 04:27:19;;;;;;;17.40;2.50;;;13.30;99.90;;;;;;5070016;28;20047;-79
2022/06/19 04:29:45;;;;;;;17.13;2.95;;;13.00;99.90;;;;;;5070118;28;20508;-77
2022/06/19 04:32:10;;;;;;;12.60;2.72;;;13.10;99.90;;;;;;5070103;28;20117;-78
2022/06/19 04:34:36;;;;;;;15.88;3.03;;;13.20;99.90;;;;;;5069989;28;20294;-75
2022/06/19 04:37:02;;;;;;;17.85;2.58;;;13.20;99.90;;;;;;5070027;28;20589;-80
2022/06/19 04:39:28;;;;;;;15.73;2.92;;;13.00;99.90;;;;;;5070116;28;20052;-80
2022/06/19 04:41:53;;;;;;;19.83;2.42;;;13.20;99.90;;;;;;5051666;28;20044;-80
2022/06/19 04:44:20;;;;;;;15.90;3.22;;;13.00;99.90;;;;;;5069983;28;20388;-79
2022/06/19 04:46:46;;;;;;;12.73;2.38;;;13.00;99.90;;;;;;5070128;28;20044;-79
2022/06/19 04:49:13;;;;;;;20.38;2.45;;;13.20;99.90;;;;;;5054365;28;20102;-78
2022/06/19 04:51:39;;;;;;;15.23;2.85;;;13.00;99.90;;;;;;5073417;28;20147;-79
2022/06/19 04:54:05;;;;;;;15.38;2.53;;;13.10;99.90;;;;;;5073862;28;20045;-79
2022/06/19 04:56:30;;;;;;;23.70;2.83;;;13.00;99.90;;;;;;5055462;28;20398;-79
2022/06/19 04:58:56;;;;;;;18.60;2.40;;;12.90;99.90;;;;;;5073596;28;20048;-79
2022/06/19 05:01:24;;;;;;;14.00;2.05;;;13.00;99.90;;;;;;5073575;28;20041;-77
2022/06/19 05:03:53;;;;;;;15.10;2.30;;;13.00;99.90;;;;;;5073243;28;20102;-79
2022/06/19 05:06:19;;;;;;;22.15;3.67;;;13.00;99.90;;;;;;5073679;28;20132;-81
2022/06/19 05:08:45;;;;;;;20.13;2.55;;;13.10;99.90;;;;;;5055277;28;20052;-79
2022/06/19 05:11:11;;;;;;;15.75;2.70;;;13.00;99.90;;;;;;5073418;28;20126;-82
2022/06/19 05:13:37;;;;;;;18.40;2.80;;;13.00;99.90;;;;;;5072995;28;20176;-79
2022/06/19 05:16:12;;;;;;;17.83;2.33;;;13.30;99.90;;;;;;5073222;28;20045;-78
2022/06/19 05:18:38;;;;;;;18.08;2.65;;;13.00;99.90;;;;;;5072820;28;20048;-78
2022/06/19 05:21:04;;;;;;;18.38;2.30;;;13.30;99.90;;;;;;5073308;28;20090;-77
2022/06/19 05:23:39;;;;;;;14.60;2.30;;;13.30;99.90;;;;;;5073254;28;20368;-79
2022/06/19 05:26:13;;;;;;;13.20;2.10;;;13.00;99.90;;;;;;5073081;28;20056;-77
2022/06/19 05:28:39;;;;;;;14.13;2.33;;;13.10;99.90;;;;;;5054711;28;20048;-78
2022/06/19 05:31:05;;;;;;;18.65;2.50;;;13.10;99.90;;;;;;5054967;28;20045;-78
2022/06/19 05:33:32;;;;;;;15.57;2.33;;;13.10;99.90;;;;;;5072638;28;20124;-79
2022/06/19 05:35:58;;;;;;;16.77;3.08;;;13.10;99.90;;;;;;5073078;28;20044;-80
2022/06/19 05:38:24;;;;;;;14.98;2.33;;;13.20;99.90;;;;;;5073004;28;20036;-79
2022/06/19 05:40:51;;;;;;;17.38;2.80;;;13.10;99.90;;;;;;5072836;28;20091;-78
2022/06/19 05:43:19;;;;;;;15.77;2.63;;;13.10;99.90;;;;;;5072687;28;20041;-78
2022/06/19 05:46:01;;;;;;;15.57;2.40;;;13.10;99.90;;;;;;5072743;28;20151;-78
2022/06/19 05:48:29;;;;;;;17.50;2.80;;;13.10;99.90;;;;;;5072639;28;20044;-79
2022/06/19 05:50:58;;;;;;;16.38;2.40;;;13.10;99.90;;;;;;5054481;28;20774;-80
2022/06/19 05:53:25;;;;;;;20.67;2.60;;;13.20;99.90;;;;;;5072682;28;20036;-78
2022/06/19 05:55:51;;;;;;;19.33;2.78;;;13.10;99.90;;;;;;5072549;28;20049;-78
2022/06/19 05:58:16;;;;;;;15.70;2.30;;;13.20;99.90;;;;;;5072468;28;20055;-75
2022/06/19 06:00:42;;;;;;;15.88;1.98;;;13.30;99.90;;;;;;5071462;28;20483;-77
2022/06/19 06:03:13;;;;;;;15.73;2.33;;;13.00;99.90;;;;;;5072683;28;20101;-78
2022/06/19 06:05:38;;;;;;;17.13;2.63;;;13.00;99.90;;;;;;5054541;28;20059;-79
2022/06/19 06:08:05;;;;;;;19.90;2.47;;;13.00;99.90;;;;;;5054346;28;20044;-78
2022/06/19 06:10:31;;;;;;;25.17;2.42;;;12.90;99.90;;;;;;5072106;28;20123;-78
2022/06/19 06:12:56;;;;;;;16.40;1.77;;;12.70;99.90;;;;;;5054494;28;20127;-79
2022/06/19 06:15:22;;;;;;;20.35;2.58;;;12.90;99.90;;;;;;5071663;28;20040;-76
2022/06/19 06:17:47;;;;;;;18.15;1.90;;;12.90;99.90;;;;;;5072450;28;20144;-76
2022/06/19 06:20:13;;;;;;;27.33;2.20;;;12.90;99.90;;;;;;5054316;28;20484;-76
2022/06/19 06:22:39;;;;;;;16.52;2.20;;;12.90;99.90;;;;;;5072118;28;20060;-84
2022/06/19 06:25:06;;;;;;;21.30;2.42;;;13.30;99.90;;;;;;5054063;28;20056;-75
2022/06/19 06:27:31;;;;;;;14.18;2.22;;;12.90;99.90;;;;;;5072148;28;20177;-77
2022/06/19 06:29:57;;;;;;;18.17;2.08;;;12.90;99.90;;;;;;5053677;28;20049;-78
2022/06/19 06:32:22;;;;;;;15.05;2.08;;;12.90;99.90;;;;;;5072006;28;20041;-82
2022/06/19 06:34:49;;;;;;;16.58;1.90;;;13.10;99.90;;;;;;5054688;28;20049;-77
2022/06/19 06:37:15;;;;;;;22.80;1.90;;;13.00;99.90;;;;;;5072353;28;20399;-76
2022/06/19 06:39:41;;;;;;;18.83;2.13;;;12.90;99.90;;;;;;5072254;28;20059;-76
2022/06/19 06:42:06;;;;;;;16.63;1.88;;;12.90;99.90;;;;;;5072286;28;20033;-76
2022/06/19 06:44:32;;;;;;;14.57;1.92;;;13.00;99.90;;;;;;5071841;28;20052;-78
2022/06/19 06:47:01;;;;;;;16.65;1.90;;;13.00;99.90;;;;;;5071739;28;20044;-75
2022/06/19 06:49:27;;;;;;;13.68;2.15;;;13.10;99.90;;;;;;5071893;28;20110;-76
2022/06/19 06:51:53;;;;;;;16.08;2.50;;;13.10;99.90;;;;;;5071633;28;20093;-76
2022/06/19 06:54:19;;;;;;;16.20;1.92;;;13.10;99.90;;;;;;5071772;28;20084;-80
2022/06/19 06:56:44;;;;;;;17.48;2.88;;;13.10;99.90;;;;;;5053723;28;20052;-79
2022/06/19 06:59:10;;;;;;;13.40;1.98;;;13.20;99.90;;;;;;5071479;28;20048;-78
2022/06/19 07:01:36;;;;;;;22.63;1.90;;;13.20;99.90;;;;;;5070985;28;20040;-77
2022/06/19 07:04:02;;;;;;;12.02;2.38;;;13.30;99.90;;;;;;5071399;28;20052;-76
2022/06/19 07:06:29;;;;;;;15.95;2.15;;;13.30;99.90;;;;;;5071285;28;20064;-75
2022/06/19 07:08:55;;;;;;;16.33;1.80;;;13.30;99.90;;;;;;5071364;28;20445;-75
2022/06/19 07:11:24;;;;;;;17.65;1.90;;;13.30;99.90;;;;;;5070153;28;20037;-79
2022/06/19 07:13:50;;;;;;;17.88;2.45;;;13.40;99.90;;;;;;5053033;28;20052;-76
2022/06/19 07:16:15;;;;;;;13.10;2.08;;;13.30;99.90;;;;;;5052884;28;20044;-76
2022/06/19 07:18:41;;;;;;;19.65;2.03;;;13.50;99.90;;;;;;5071153;28;20044;-75
2022/06/19 07:21:10;;;;;;;9.40;1.77;;;13.40;99.90;;;;;;5071226;28;20084;-74
2022/06/19 07:23:35;;;;;;;11.65;2.05;;;13.50;99.90;;;;;;5070915;28;20090;-75
2022/06/19 07:26:01;;;;;;;15.57;2.17;;;13.50;99.90;;;;;;5070851;28;20044;-77
2022/06/19 07:28:27;;;;;;;11.63;1.95;;;13.70;99.90;;;;;;5052934;28;20044;-76
2022/06/19 07:30:53;;;;;;;20.52;2.28;;;13.60;99.90;;;;;;5070647;28;20063;-77
2022/06/19 07:33:19;;;;;;;21.65;2.58;;;13.60;99.90;;;;;;5071037;28;20041;-76
2022/06/19 07:35:46;;;;;;;15.05;1.92;;;13.70;99.90;;;;;;5052910;28;20128;-78
2022/06/19 07:38:11;;;;;;;10.00;2.08;;;13.90;99.90;;;;;;5070737;28;20132;-76
2022/06/19 07:40:37;;;;;;;13.20;2.25;;;13.80;99.90;;;;;;5052767;28;20128;-78
2022/06/19 07:43:04;;;;;;;13.35;2.10;;;13.70;99.90;;;;;;5052624;28;20048;-75
2022/06/19 07:45:30;;;;;;;11.60;1.80;;;13.70;99.90;;;;;;5070679;28;20040;-76
2022/06/19 07:50:41;;;;;;;;;;;13.90;99.90;;;;;;5071016;28;20061;-77
2022/06/19 07:53:07;;;;;;;12.18;2.00;;;14.00;99.90;;;;;;5069152;28;19969;-76
2022/06/19 07:55:32;;;;;;;11.90;1.83;;;13.90;99.90;;;;;;5070481;28;20532;-77
2022/06/19 07:58:00;;;;;;;14.35;2.00;;;14.00;99.90;;;;;;5070539;28;20044;-76
2022/06/19 08:00:34;;;;;;;13.43;1.88;;;13.90;99.90;;;;;;5070331;28;20124;-76
2022/06/19 08:03:00;;;;;;;15.60;1.60;;;13.90;99.90;;;;;;5070260;28;20095;-76
2022/06/19 08:05:30;;;;;;;16.35;2.25;;;14.00;99.90;;;;;;5052615;28;20423;-76
2022/06/19 08:07:58;;;;;;;13.57;1.73;;;13.90;99.90;;;;;;5052336;28;20076;-76
2022/06/19 08:10:39;;;;;;;11.48;1.92;;;13.80;99.90;;;;;;5070253;28;20049;-78
2022/06/19 08:13:06;;;;;;;14.70;1.80;;;13.80;99.90;;;;;;5051985;28;20058;-76
2022/06/19 08:15:33;;;;;;;12.25;1.88;;;13.80;99.90;;;;;;5070401;28;20048;-76
2022/06/19 08:17:59;;;;;;;12.13;2.20;;;13.90;99.90;;;;;;5051848;28;20059;-76
2022/06/19 08:20:26;;;;;;;9.93;1.70;;;14.00;99.90;;;;;;5070219;28;20048;-78
2022/06/19 08:22:51;;;;;;;13.10;1.85;;;13.80;99.90;;;;;;5070779;28;20051;-76
2022/06/19 08:25:19;;;;;;;12.65;2.00;;;13.90;99.90;;;;;;5074447;28;20044;-76
2022/06/19 08:27:48;;;;;;;13.20;1.83;;;13.90;99.90;;;;;;5056478;28;20399;-75
2022/06/19 08:30:23;;;;;;;10.48;1.63;;;14.20;99.90;;;;;;5074333;28;20373;-75
2022/06/19 08:32:50;;;;;;;13.45;1.70;;;14.10;99.90;;;;;;5074121;28;20124;-75
2022/06/19 08:35:16;;;;;;;13.60;1.52;;;14.20;99.90;;;;;;5074224;28;20048;-76
2022/06/19 08:37:43;;;;;;;11.07;2.50;;;14.20;99.90;;;;;;5056048;28;20154;-76
2022/06/19 08:40:44;;;;;;;10.38;1.67;;;14.30;99.90;;;;;;5074097;28;20432;-76
2022/06/19 08:43:33;;;;;;;10.73;2.00;;;14.30;99.90;;;;;;5011753;28;20054;-77
2022/06/19 08:46:36;;;;;;;13.35;1.80;;;14.40;99.90;;;;;;5011795;28;20080;-77
2022/06/19 08:49:24;;;;;;;12.38;1.60;;;14.50;99.90;;;;;;5011081;28;20050;-76
2022/06/19 08:51:53;;;;;;;13.30;1.73;;;14.50;99.90;;;;;;5011669;28;20090;-83
2022/06/19 08:54:21;;;;;;;10.85;1.40;;;14.50;99.90;;;;;;4995358;28;20054;-77
2022/06/19 08:57:00;;;;;;;11.82;2.35;;;14.50;99.90;;;;;;4995388;28;20054;-75
2022/06/19 08:59:44;;;;;;;11.60;1.67;;;14.60;99.90;;;;;;5011657;28;20187;-75
2022/06/19 09:02:31;;;;;;;9.95;1.60;;;14.60;99.90;;;;;;4995532;28;20089;-76
2022/06/19 09:08:04;;;;;;;15.18;1.60;;;14.70;99.90;;;;;;5011299;28;20505;-77
2022/06/19 09:10:51;;;;;;;12.43;1.95;;;14.80;99.90;;;;;;5011327;28;20042;-76
2022/06/19 09:13:51;;;;;;;6.72;1.30;;;14.80;99.90;;;;;;4995346;28;20712;-76
2022/06/19 09:16:50;;;;;;;11.93;1.95;;;14.90;99.90;;;;;;5011280;28;20053;-77
2022/06/19 09:19:29;;;;;;;7.90;1.23;;;14.80;99.90;;;;;;5021910;28;20052;-77
2022/06/19 09:22:11;;;;;;;13.02;1.63;;;14.80;99.90;;;;;;5073521;28;20049;-77
2022/06/19 09:24:45;;;;;;;10.55;1.45;;;14.90;99.90;;;;;;5073328;28;20135;-76
2022/06/19 09:27:13;;;;;;;7.88;1.55;;;14.90;99.90;;;;;;5055146;28;20063;-76
2022/06/19 09:29:55;;;;;;;10.05;1.50;;;15.00;99.90;;;;;;5055003;28;20053;-76
2022/06/19 09:32:29;;;;;;;8.75;1.20;;;15.00;99.90;;;;;;5073061;28;20106;-77
2022/06/19 09:35:01;;;;;;;9.35;1.42;;;15.00;99.90;;;;;;5053826;28;20147;-76
2022/06/19 09:37:53;;;;;;;7.35;1.00;;;15.00;99.90;;;;;;5073192;28;20040;-77
2022/06/19 09:40:41;;;;;;;8.20;1.25;;;15.10;99.90;;;;;;5055179;28;20408;-77
2022/06/19 09:43:28;;;;;;;10.07;1.77;;;15.10;99.90;;;;;;5072957;28;20051;-77
2022/06/19 09:46:17;;;;;;;7.95;1.20;;;15.20;99.90;;;;;;5038105;28;20052;-77
2022/06/19 09:48:57;;;;;;;8.15;1.35;;;15.20;99.90;;;;;;5072817;28;20044;-77
2022/06/19 09:51:51;;;;;;;6.22;0.98;;;15.40;99.90;;;;;;5072335;28;20067;-77
2022/06/19 09:54:24;;;;;;;10.63;1.15;;;15.30;99.90;;;;;;5054690;28;20123;-77
2022/06/19 09:56:56;;;;;;;5.78;1.25;;;15.70;99.90;;;;;;5072749;28;20052;-77
2022/06/19 09:59:40;;;;;;;9.35;1.08;;;15.50;99.90;;;;;;5072481;28;20052;-76
2022/06/19 10:02:17;;;;;;;7.03;1.17;;;15.50;99.90;;;;;;5072288;28;20044;-75
2022/06/19 10:04:47;;;;;;;6.03;1.65;;;15.50;99.90;;;;;;5072526;28;20181;-76
2022/06/19 10:07:37;;;;;;;6.75;1.10;;;15.60;99.90;;;;;;5072232;28;20044;-77
2022/06/19 10:10:41;;;;;;;6.60;1.35;;;15.70;99.90;;;;;;5072115;28;20055;-76
2022/06/19 10:13:37;;;;;;;8.60;1.15;;;15.70;99.90;;;;;;5054117;28;20055;-74
2022/06/19 10:16:14;;;;;;;5.28;1.10;;;15.90;99.90;;;;;;5010048;28;20568;-77
2022/06/19 10:18:45;;;;;;;11.27;1.13;;;15.90;99.90;;;;;;5010147;28;20131;-76
2022/06/19 10:24:45;;;;;;;7.13;1.10;;;16.10;99.90;;;;;;4993468;28;20572;-76
2022/06/19 10:27:24;;;;;;;9.32;1.63;;;16.20;99.90;;;;;;4993595;28;20057;-75
2022/06/19 10:29:58;;;;;;;5.47;0.80;;;16.20;99.90;;;;;;5009821;28;20084;-78
2022/06/19 10:32:44;;;;;;;6.03;1.70;;;16.20;99.90;;;;;;5009670;28;20046;-76
2022/06/19 10:35:28;;;;;;;7.95;1.58;;;16.30;99.90;;;;;;5009694;28;20485;-76
2022/06/19 10:38:26;;;;;;;8.45;1.15;;;16.50;99.90;;;;;;5009191;28;20531;-77
2022/06/19 10:41:07;;;;;;;4.00;0.98;;;16.70;99.90;;;;;;4993012;28;20097;-76
2022/06/19 10:44:07;;;;;;;3.97;0.77;;;16.80;99.90;;;;;;5009466;28;20519;-76
2022/06/19 10:46:32;;;;;;;7.68;1.25;;;17.10;99.90;;;;;;5009145;28;20547;-80
2022/06/19 10:49:10;;;;;;;5.97;0.85;;;17.50;99.90;;;;;;5009357;28;20038;-77
2022/06/19 10:52:06;;;;;;;7.10;0.90;;;17.80;99.90;;;;;;4992954;28;20142;-74
2022/06/19 10:55:02;;;;;;;4.25;0.80;;;18.20;99.90;;;;;;5071178;28;20048;-77
2022/06/19 10:57:59;;;;;;;4.90;0.60;;;18.50;99.90;;;;;;5071496;28;20044;-77
2022/06/19 11:00:24;;;;;;;4.40;0.77;;;18.50;99.90;;;;;;5053581;28;20392;-76
2022/06/19 11:05:50;;;;;;;4.22;0.60;;;18.80;99.90;;;;;;5053279;28;20056;-76
2022/06/19 11:08:21;;;;;;;3.42;0.60;;;18.80;99.90;;;;;;5052667;28;20055;-78
2022/06/19 11:10:55;;;;;;;2.38;0.70;;;18.70;99.90;;;;;;5071349;28;20400;-74
2022/06/19 11:13:21;;;;;;;4.65;0.73;;;18.50;99.90;;;;;;5071298;28;20522;-77
2022/06/19 11:16:01;;;;;;;1.60;0.40;;;18.50;99.90;;;;;;5052805;28;20049;-77
2022/06/19 11:18:27;;;;;;;4.63;0.68;;;18.50;99.90;;;;;;5053234;28;20694;-76
2022/06/19 11:20:55;;;;;;;3.85;0.60;;;18.20;99.90;;;;;;5053065;28;20063;-78
2022/06/19 11:23:38;;;;;;;5.22;0.80;;;18.10;99.90;;;;;;5070697;28;20048;-78
2022/06/19 11:26:08;;;;;;;5.15;0.90;;;17.80;99.90;;;;;;5070769;28;20036;-77
2022/06/19 11:28:47;;;;;;;2.90;0.70;;;17.70;99.90;;;;;;5070941;28;20046;-77
2022/06/19 11:31:23;;;;;;;4.35;0.65;;;17.60;99.90;;;;;;5070738;28;20075;-77
2022/06/19 11:33:54;;;;;;;6.68;0.93;;;17.50;99.90;;;;;;5053211;28;20057;-77
2022/06/19 11:36:37;;;;;;;7.18;0.80;;;17.20;99.90;;;;;;5052771;28;20049;-77
2022/06/19 11:39:31;;;;;;;5.40;0.80;;;17.10;99.90;;;;;;5070260;28;20123;-77
2022/06/19 11:41:57;;;;;;;5.75;0.80;;;17.00;99.90;;;;;;5071066;28;20040;-77
2022/06/19 11:44:23;;;;;;;6.63;1.00;;;17.00;99.90;;;;;;5053235;28;20506;-76
2022/06/19 11:46:58;;;;;;;4.88;1.00;;;16.90;99.90;;;;;;5052830;28;20048;-76
2022/06/19 11:49:39;;;;;;;8.50;0.95;;;16.80;99.90;;;;;;5052419;28;20047;-77
2022/06/19 11:52:16;;;;;;;5.55;1.08;;;16.70;99.90;;;;;;5070316;28;20411;-76
2022/06/19 11:54:46;;;;;;;4.57;0.85;;;16.80;99.90;;;;;;5052226;28;20044;-76
2022/06/19 11:57:33;;;;;;;5.30;0.68;;;17.00;99.90;;;;;;5052225;28;20102;-77
2022/06/19 12:00:02;;;;;;;3.63;0.70;;;16.70;99.90;;;;;;5070385;28;20119;-77
2022/06/19 12:02:35;;;;;;;4.45;0.85;;;16.70;99.90;;;;;;5052464;28;20048;-77
2022/06/19 12:05:18;;;;;;;5.72;0.70;;;16.80;99.90;;;;;;5035727;28;20067;-76
2022/06/19 12:07:44;;;;;;;4.57;1.13;;;16.70;99.90;;;;;;5070485;28;20106;-77
2022/06/19 12:10:24;;;;;;;6.70;1.20;;;16.60;99.90;;;;;;5052081;28;20068;-76
2022/06/19 12:12:57;;;;;;;6.93;1.10;;;16.60;99.90;;;;;;5070636;28;20094;-77
2022/06/19 12:15:29;;;;;;;11.65;1.58;;;16.60;99.90;;;;;;5070602;28;20052;-75
2022/06/19 12:18:03;;;;;;;6.85;0.98;;;16.80;99.90;;;;;;5052237;28;20059;-77
2022/06/19 12:20:30;;;;;;;;;;;16.60;99.90;;;;;;5070489;28;20613;-77
2022/06/19 12:23:18;;;;;;;6.82;1.77;;;16.80;99.90;;;;;;5070077;28;19924;-77
2022/06/19 12:25:53;;;;;;;7.68;1.17;;;17.10;99.90;;;;;;5069916;28;20048;-79
2022/06/19 12:28:31;;;;;;;8.00;1.25;;;17.50;99.90;;;;;;5070287;28;20048;-76
2022/06/19 12:31:03;;;;;;;9.57;1.88;;;17.80;99.90;;;;;;5052338;28;20485;-77
2022/06/19 12:33:48;;;;;;;5.57;1.25;;;18.10;99.90;;;;;;5069930;28;20045;-73
2022/06/19 12:36:22;;;;;;;11.65;1.50;;;18.40;99.90;;;;;;5070369;28;20123;-76
2022/06/19 12:38:50;;;;;;;7.70;1.63;;;18.70;99.90;;;;;;5070241;28;20045;-78
2022/06/19 12:41:43;;;;;;;9.35;1.35;;;18.90;99.90;;;;;;5051871;28;20041;-77
2022/06/19 12:44:42;;;;;;;9.38;1.40;;;19.00;99.90;;;;;;5069980;28;20098;-77
2022/06/19 12:47:13;;;;;;;5.22;0.90;;;19.30;99.90;;;;;;5070027;28;20044;-80
2022/06/19 12:49:57;;;;;;;8.57;1.38;;;19.40;99.90;;;;;;5069975;28;20280;-78
2022/06/19 12:52:41;;;;;;;4.72;0.93;;;19.30;99.90;;;;;;5051799;28;20060;-78
2022/06/19 12:55:33;;;;;;;5.67;0.90;;;19.30;99.90;;;;;;5070140;28;20067;-78
2022/06/19 12:58:26;;;;;;;5.93;1.20;;;19.30;99.90;;;;;;5069893;28;20531;-76
2022/06/19 13:00:55;;;;;;;6.65;0.80;;;19.20;99.90;;;;;;5069686;28;20052;-79
2022/06/19 13:03:36;;;;;;;8.00;1.20;;;19.10;99.90;;;;;;5052054;28;20048;-77
2022/06/19 13:06:20;;;;;;;6.13;0.85;;;19.20;99.90;;;;;;5051937;28;20044;-78
2022/06/19 13:09:19;;;;;;;7.75;0.82;;;19.20;99.90;;;;;;5052265;28;20094;-78
2022/06/19 13:12:11;;;;;;;9.27;0.90;;;19.30;99.90;;;;;;5073368;28;20143;-80
2022/06/19 13:14:57;;;;;;;5.00;1.33;;;19.30;99.90;;;;;;5073466;28;20040;-76
2022/06/19 13:17:28;;;;;;;4.65;0.85;;;19.20;99.90;;;;;;5073459;28;20060;-75
2022/06/19 13:20:12;;;;;;;6.22;1.00;;;19.20;99.90;;;;;;5073353;28;20484;-77